createdAt,value
2024-01-30T00:01:20.205Z,2.70
2024-01-30T00:03:48.339Z,3.15
2024-01-30T00:06:15.279Z,2.08
2024-01-30T00:08:41.961Z,3.00
2024-01-30T00:11:08.908Z,2.08
2024-01-30T00:13:35.558Z,3.12
2024-01-30T00:16:02.206Z,3.24
2024-01-30T00:18:28.880Z,1.40
2024-01-30T00:20:56.856Z,3.02
2024-01-30T00:23:23.483Z,3.19
2024-01-30T00:25:50.986Z,3.21
2024-01-30T00:28:17.783Z,3.29
2024-01-30T00:30:44.656Z,3.27
2024-01-30T00:33:11.357Z,3.20
2024-01-30T00:35:37.980Z,3.25
2024-01-30T00:38:07.839Z,3.19
2024-01-30T00:40:34.444Z,3.27
2024-01-30T00:43:01.235Z,3.01
2024-01-30T00:45:27.848Z,3.15
2024-01-30T00:47:54.607Z,3.15
2024-01-30T00:50:21.312Z,3.14
2024-01-30T00:52:48.030Z,3.21
2024-01-30T00:55:16.216Z,3.16
2024-01-30T00:57:45.633Z,3.15
2024-01-30T01:00:13.875Z,3.22
2024-01-30T01:02:40.860Z,3.23
2024-01-30T01:05:08.209Z,3.07
2024-01-30T01:07:35.041Z,3.17
2024-01-30T01:10:01.902Z,3.21
2024-01-30T01:12:29.934Z,3.13
2024-01-30T01:14:56.578Z,3.14
2024-01-30T01:17:23.271Z,3.13
2024-01-30T01:19:49.978Z,3.07
2024-01-30T01:22:18.364Z,2.89
2024-01-30T01:24:45.140Z,3.12
2024-01-30T01:27:12.440Z,3.11
2024-01-30T01:29:40.373Z,3.14
2024-01-30T01:32:07.006Z,3.08
2024-01-30T01:34:33.785Z,1.78
2024-01-30T01:37:01.116Z,1.07
2024-01-30T01:39:27.757Z,2.07
2024-01-30T01:41:54.379Z,1.45
2024-01-30T01:44:21.331Z,2.80
2024-01-30T01:46:49.957Z,2.15
2024-01-30T01:49:16.888Z,0.16
2024-01-30T01:51:45.987Z,2.01
2024-01-30T01:54:13.173Z,2.80
2024-01-30T01:56:40.136Z,2.91
2024-01-30T01:59:10.793Z,2.96
2024-01-30T02:01:38.620Z,2.93
2024-01-30T02:04:08.157Z,2.42
2024-01-30T02:06:35.237Z,2.87
2024-01-30T02:09:02.019Z,2.91
2024-01-30T02:11:29.546Z,2.94
2024-01-30T02:13:56.220Z,2.79
2024-01-30T02:16:22.985Z,2.91
2024-01-30T02:18:49.809Z,2.04
2024-01-30T02:21:18.472Z,1.73
2024-01-30T02:23:47.545Z,2.59
2024-01-30T02:26:14.289Z,2.48
2024-01-30T02:28:40.963Z,2.55
2024-01-30T02:31:07.768Z,2.79
2024-01-30T02:33:34.575Z,2.83
2024-01-30T02:36:02.385Z,1.09
2024-01-30T02:38:30.405Z,1.50
2024-01-30T02:40:59.749Z,2.41
2024-01-30T02:43:26.624Z,2.69
2024-01-30T02:45:53.304Z,2.73
2024-01-30T02:48:19.964Z,2.77
2024-01-30T02:50:48.048Z,2.79
2024-01-30T02:53:14.887Z,2.76
2024-01-30T02:55:43.084Z,2.74
2024-01-30T02:58:09.748Z,2.75
2024-01-30T03:00:36.500Z,2.78
2024-01-30T03:03:03.300Z,2.79
2024-01-30T03:05:30.143Z,0.07
2024-01-30T03:07:56.858Z,0.08
2024-01-30T03:10:23.849Z,-1.45
2024-01-30T03:12:51.976Z,-0.21
2024-01-30T03:15:18.646Z,1.88
2024-01-30T03:17:45.354Z,2.38
2024-01-30T03:20:12.617Z,2.52
2024-01-30T03:22:39.273Z,2.57
2024-01-30T03:25:07.426Z,2.32
2024-01-30T03:27:34.197Z,1.66
2024-01-30T03:30:02.222Z,1.72
2024-01-30T03:32:28.894Z,2.39
2024-01-30T03:34:55.710Z,2.50
2024-01-30T03:37:22.544Z,2.55
2024-01-30T03:39:49.267Z,2.56
2024-01-30T03:42:15.970Z,2.57
2024-01-30T03:44:42.625Z,2.54
2024-01-30T03:47:10.680Z,2.54
2024-01-30T03:49:37.470Z,2.54
2024-01-30T03:52:05.096Z,0.93
2024-01-30T03:54:31.765Z,1.37
2024-01-30T03:56:58.397Z,2.36
2024-01-30T03:59:25.445Z,2.46
2024-01-30T04:01:52.700Z,2.49
2024-01-30T04:04:21.161Z,1.46
2024-01-30T04:06:48.093Z,2.26
2024-01-30T04:09:14.727Z,2.43
2024-01-30T04:11:41.599Z,2.32
2024-01-30T04:14:08.356Z,2.44
2024-01-30T04:16:35.055Z,2.45
2024-01-30T04:19:01.760Z,2.46
2024-01-30T04:21:29.757Z,1.70
2024-01-30T04:23:56.368Z,2.39
2024-01-30T04:26:23.059Z,2.43
2024-01-30T04:28:49.701Z,2.43
2024-01-30T04:31:16.425Z,1.40
2024-01-30T04:33:43.312Z,-2.51
2024-01-30T04:36:12.894Z,0.31
2024-01-30T04:38:40.907Z,1.47
2024-01-30T04:41:08.713Z,2.12
2024-01-30T04:43:35.460Z,0.64
2024-01-30T04:46:02.736Z,2.14
2024-01-30T04:48:29.416Z,2.25
2024-01-30T04:50:57.216Z,2.27
2024-01-30T04:53:24.009Z,2.25
2024-01-30T04:55:52.044Z,2.16
2024-01-30T04:58:18.789Z,2.08
2024-01-30T05:00:47.169Z,2.22
2024-01-30T05:03:14.046Z,1.81
2024-01-30T05:05:40.831Z,2.16
2024-01-30T05:08:07.587Z,2.22
2024-01-30T05:10:34.241Z,2.27
2024-01-30T05:13:02.291Z,2.26
2024-01-30T05:15:28.941Z,2.25
2024-01-30T05:17:56.295Z,2.28
2024-01-30T05:20:23.104Z,2.00
2024-01-30T05:22:49.782Z,2.15
2024-01-30T05:25:16.527Z,2.03
2024-01-30T05:27:43.286Z,2.17
2024-01-30T05:30:12.411Z,2.20
2024-01-30T05:32:39.125Z,2.18
2024-01-30T05:35:05.987Z,2.19
2024-01-30T05:37:32.621Z,2.18
2024-01-30T05:39:59.336Z,2.20
2024-01-30T05:42:26.767Z,2.22
2024-01-30T05:44:53.366Z,2.18
2024-01-30T05:47:21.364Z,2.17
2024-01-30T05:49:48.063Z,2.16
2024-01-30T05:52:16.291Z,2.15
2024-01-30T05:54:43.001Z,2.14
2024-01-30T05:57:10.022Z,2.14
2024-01-30T05:59:39.835Z,2.17
2024-01-30T06:02:08.676Z,2.13
2024-01-30T06:04:36.983Z,2.12
2024-01-30T06:07:04.190Z,2.11
2024-01-30T06:09:30.952Z,2.10
2024-01-30T06:11:57.707Z,2.11
2024-01-30T06:14:24.662Z,2.10
2024-01-30T06:16:51.339Z,2.09
2024-01-30T06:19:18.105Z,2.09
2024-01-30T06:21:46.583Z,2.08
2024-01-30T06:24:13.380Z,2.07
2024-01-30T06:26:40.059Z,0.32
2024-01-30T06:29:06.796Z,0.81
2024-01-30T06:31:33.463Z,1.80
2024-01-30T06:34:00.261Z,1.96
2024-01-30T06:36:26.971Z,2.00
2024-01-30T06:38:55.103Z,0.62
2024-01-30T06:41:21.772Z,-0.27
2024-01-30T06:43:48.460Z,1.40
2024-01-30T06:46:15.199Z,1.74
2024-01-30T06:48:42.006Z,1.85
2024-01-30T06:51:08.749Z,1.88
2024-01-30T06:53:35.429Z,1.88
2024-01-30T06:56:03.832Z,1.88
2024-01-30T06:58:30.879Z,1.89
2024-01-30T07:00:57.732Z,1.90
2024-01-30T07:03:24.498Z,1.89
2024-01-30T07:05:51.224Z,1.89
2024-01-30T07:08:18.559Z,1.87
2024-01-30T07:10:45.414Z,1.91
2024-01-30T07:13:13.692Z,1.84
2024-01-30T07:15:40.372Z,1.85
2024-01-30T07:18:07.240Z,1.86
2024-01-30T07:20:34.096Z,1.83
2024-01-30T07:23:00.814Z,1.84
2024-01-30T07:25:31.066Z,1.84
2024-01-30T07:27:58.615Z,0.36
2024-01-30T07:30:26.769Z,0.64
2024-01-30T07:32:53.440Z,1.43
2024-01-30T07:35:20.177Z,1.68
2024-01-30T07:37:46.949Z,1.76
2024-01-30T07:40:13.817Z,1.79
2024-01-30T07:42:40.487Z,1.01
2024-01-30T07:45:07.730Z,0.10
2024-01-30T07:47:35.803Z,1.03
2024-01-30T07:50:02.627Z,0.67
2024-01-30T07:52:29.770Z,-0.38
2024-01-30T07:54:56.742Z,1.37
2024-01-30T07:57:23.420Z,1.57
2024-01-30T07:59:50.035Z,1.76
2024-01-30T08:02:16.678Z,0.89
2024-01-30T08:04:44.770Z,1.73
2024-01-30T08:07:11.613Z,2.22
2024-01-30T08:09:38.280Z,1.86
2024-01-30T08:12:05.987Z,1.79
2024-01-30T08:14:33.017Z,1.81
2024-01-30T08:16:59.636Z,3.15
2024-01-30T08:19:26.375Z,3.64
2024-01-30T08:21:54.460Z,3.80
2024-01-30T08:24:21.133Z,4.92
2024-01-30T08:26:47.783Z,5.28
2024-01-30T08:29:14.530Z,5.93
2024-01-30T08:31:41.293Z,4.56
2024-01-30T08:34:08.069Z,4.49
2024-01-30T08:36:34.798Z,6.24
2024-01-30T08:39:05.221Z,6.26
2024-01-30T08:41:33.153Z,6.00
2024-01-30T08:43:59.809Z,5.58
2024-01-30T08:46:26.531Z,8.28
2024-01-30T08:48:53.524Z,6.54
2024-01-30T08:51:20.226Z,6.99
2024-01-30T08:53:46.994Z,6.89
2024-01-30T08:56:15.045Z,7.02
2024-01-30T08:58:41.668Z,7.12
2024-01-30T09:01:08.427Z,5.83
2024-01-30T09:03:35.291Z,5.29
2024-01-30T09:06:02.042Z,7.83
2024-01-30T09:08:29.000Z,6.90
2024-01-30T09:10:56.154Z,9.97
2024-01-30T09:13:24.318Z,7.12
2024-01-30T09:15:51.022Z,11.24
2024-01-30T09:18:17.839Z,12.24
2024-01-30T09:20:46.531Z,12.59
2024-01-30T09:23:13.212Z,12.77
2024-01-30T09:25:39.885Z,12.09
2024-01-30T09:28:07.215Z,12.29
2024-01-30T09:30:35.233Z,12.25
2024-01-30T09:33:01.995Z,12.49
2024-01-30T09:35:28.820Z,11.31
2024-01-30T09:37:55.606Z,10.52
2024-01-30T09:40:22.501Z,9.32
2024-01-30T09:42:51.688Z,10.28
2024-01-30T09:45:19.192Z,11.84
2024-01-30T09:47:47.631Z,13.00
2024-01-30T09:50:16.311Z,12.83
2024-01-30T09:52:44.185Z,12.97
2024-01-30T09:55:11.204Z,15.32
2024-01-30T09:57:37.895Z,15.17
2024-01-30T10:00:05.584Z,13.40
2024-01-30T10:02:32.779Z,10.05
2024-01-30T10:05:01.820Z,9.34
2024-01-30T10:07:29.099Z,9.42
2024-01-30T10:09:58.637Z,11.10
2024-01-30T10:12:27.368Z,13.73
2024-01-30T10:14:54.952Z,14.16
2024-01-30T10:17:32.186Z,8.98
2024-01-30T10:20:06.104Z,10.49
2024-01-30T10:22:33.240Z,7.75
2024-01-30T10:25:04.564Z,8.23
2024-01-30T10:27:32.853Z,14.31
2024-01-30T10:29:59.506Z,15.14
2024-01-30T10:32:26.894Z,16.15
2024-01-30T10:34:53.853Z,15.93
2024-01-30T10:37:26.094Z,15.89
2024-01-30T10:39:54.764Z,16.72
2024-01-30T10:42:24.804Z,16.69
2024-01-30T10:44:59.069Z,14.43
2024-01-30T10:47:28.518Z,12.30
2024-01-30T10:49:55.828Z,15.02
2024-01-30T10:52:26.891Z,14.90
2024-01-30T10:54:55.574Z,16.54
2024-01-30T10:57:25.421Z,14.21
2024-01-30T10:59:53.858Z,15.07
2024-01-30T11:02:21.200Z,15.60
2024-01-30T11:04:49.248Z,14.97
2024-01-30T11:07:17.393Z,15.52
2024-01-30T11:09:52.073Z,16.32
2024-01-30T11:12:23.393Z,17.51
2024-01-30T11:14:50.161Z,17.96
2024-01-30T11:17:16.872Z,17.64
2024-01-30T11:19:43.696Z,18.02
2024-01-30T11:22:12.859Z,18.78
2024-01-30T11:24:43.175Z,18.60
2024-01-30T11:27:11.570Z,15.39
2024-01-30T11:29:38.683Z,16.55
2024-01-30T11:32:06.452Z,16.56
2024-01-30T11:34:35.272Z,13.87
2024-01-30T11:37:10.551Z,11.07
2024-01-30T11:39:37.767Z,10.92
2024-01-30T11:42:09.932Z,11.71
2024-01-30T11:44:37.907Z,11.31
2024-01-30T11:47:04.801Z,10.44
2024-01-30T11:49:31.804Z,11.35
2024-01-30T11:51:58.833Z,11.03
2024-01-30T11:54:25.592Z,10.04
2024-01-30T11:56:52.236Z,9.84
2024-01-30T11:59:18.897Z,10.33
2024-01-30T12:01:46.988Z,10.18
2024-01-30T12:04:13.752Z,9.97
2024-01-30T12:06:41.587Z,9.87
2024-01-30T12:09:09.884Z,9.43
2024-01-30T12:11:45.427Z,9.86
2024-01-30T12:14:13.466Z,10.29
2024-01-30T12:16:40.152Z,10.80
2024-01-30T12:19:08.265Z,10.34
2024-01-30T12:21:36.026Z,10.84
2024-01-30T12:24:02.779Z,11.61
2024-01-30T12:26:29.416Z,11.62
2024-01-30T12:28:59.246Z,11.65
2024-01-30T12:31:28.094Z,10.78
2024-01-30T12:33:54.996Z,10.57
2024-01-30T12:36:24.112Z,10.97
2024-01-30T12:38:51.164Z,10.68
2024-01-30T12:41:17.989Z,10.30
2024-01-30T12:43:45.051Z,10.26
2024-01-30T12:46:11.801Z,10.17
2024-01-30T12:48:38.781Z,10.04
2024-01-30T12:51:05.864Z,9.63
2024-01-30T12:53:34.222Z,10.08
2024-01-30T12:56:00.893Z,10.01
2024-01-30T12:58:27.600Z,10.25
2024-01-30T13:00:55.584Z,10.23
2024-01-30T13:03:23.122Z,10.10
2024-01-30T13:05:50.126Z,9.99
2024-01-30T13:08:16.835Z,10.14
2024-01-30T13:10:46.445Z,10.15
2024-01-30T13:13:19.703Z,10.09
2024-01-30T13:15:47.629Z,9.68
2024-01-30T13:18:14.507Z,10.08
2024-01-30T13:20:41.203Z,10.21
2024-01-30T13:23:07.852Z,10.31
2024-01-30T13:25:34.551Z,10.31
2024-01-30T13:28:02.631Z,10.41
2024-01-30T13:30:29.325Z,10.44
2024-01-30T13:32:55.985Z,10.50
2024-01-30T13:35:22.671Z,10.55
2024-01-30T13:37:49.826Z,10.52
2024-01-30T13:40:17.746Z,10.61
2024-01-30T13:42:44.640Z,10.57
2024-01-30T13:45:12.661Z,10.65
2024-01-30T13:47:39.570Z,10.66
2024-01-30T13:50:06.668Z,9.07
2024-01-30T13:52:41.084Z,7.72
2024-01-30T13:55:11.099Z,9.25
2024-01-30T13:57:38.407Z,10.22
2024-01-30T14:00:08.804Z,10.37
2024-01-30T14:02:36.938Z,10.50
2024-01-30T14:05:05.870Z,10.39
2024-01-30T14:07:32.948Z,10.32
2024-01-30T14:09:59.676Z,10.09
2024-01-30T14:12:26.323Z,10.40
2024-01-30T14:14:52.926Z,10.46
2024-01-30T14:17:19.567Z,10.37
2024-01-30T14:19:47.645Z,10.23
2024-01-30T14:22:14.409Z,9.76
2024-01-30T14:24:41.134Z,10.06
2024-01-30T14:27:09.370Z,10.09
2024-01-30T14:29:36.253Z,9.85
2024-01-30T14:32:03.024Z,9.27
2024-01-30T14:34:29.714Z,9.18
2024-01-30T14:36:57.957Z,9.31
2024-01-30T14:39:24.752Z,9.20
2024-01-30T14:41:51.410Z,8.57
2024-01-30T14:44:18.069Z,8.64
2024-01-30T14:46:44.763Z,8.54
2024-01-30T14:49:11.492Z,7.87
2024-01-30T14:51:38.990Z,8.42
2024-01-30T14:54:07.201Z,8.54
2024-01-30T14:56:33.994Z,8.50
2024-01-30T14:59:01.131Z,8.62
2024-01-30T15:01:27.867Z,8.52
2024-01-30T15:03:56.425Z,8.16
2024-01-30T15:06:26.632Z,7.73
2024-01-30T15:08:53.620Z,7.79
2024-01-30T15:11:22.297Z,7.49
2024-01-30T15:13:48.929Z,6.88
2024-01-30T15:16:15.803Z,7.09
2024-01-30T15:18:42.549Z,7.41
2024-01-30T15:21:09.257Z,7.36
2024-01-30T15:23:36.383Z,7.05
2024-01-30T15:26:03.285Z,6.72
2024-01-30T15:28:38.790Z,6.96
2024-01-30T15:31:06.649Z,6.90
2024-01-30T15:33:34.218Z,6.69
2024-01-30T15:36:01.736Z,6.76
2024-01-30T15:38:29.785Z,6.98
2024-01-30T15:40:57.422Z,6.65
2024-01-30T15:43:25.150Z,6.79
2024-01-30T15:45:53.764Z,6.74
2024-01-30T15:48:21.184Z,6.02
2024-01-30T15:50:48.117Z,6.20
2024-01-30T15:53:14.836Z,6.32
2024-01-30T15:55:41.760Z,6.28
2024-01-30T15:58:08.529Z,6.05
2024-01-30T16:00:35.305Z,5.91
2024-01-30T16:03:03.415Z,5.96
2024-01-30T16:05:30.069Z,5.88
2024-01-30T16:07:56.740Z,6.01
2024-01-30T16:10:23.496Z,6.15
2024-01-30T16:12:50.938Z,6.12
2024-01-30T16:15:19.395Z,6.04
2024-01-30T16:17:46.176Z,6.03
2024-01-30T16:20:17.219Z,6.03
2024-01-30T16:22:43.968Z,5.90
2024-01-30T16:25:11.537Z,6.13
2024-01-30T16:27:38.241Z,5.91
2024-01-30T16:30:06.044Z,5.87
2024-01-30T16:32:33.180Z,5.31
2024-01-30T16:35:00.018Z,5.52
2024-01-30T16:37:28.072Z,5.29
2024-01-30T16:39:54.785Z,5.68
2024-01-30T16:42:21.479Z,5.68
2024-01-30T16:44:48.492Z,5.71
2024-01-30T16:47:15.383Z,5.89
2024-01-30T16:49:42.164Z,5.94
2024-01-30T16:52:08.983Z,5.81
2024-01-30T16:54:37.009Z,4.74
2024-01-30T16:57:04.347Z,3.57
2024-01-30T16:59:30.980Z,3.84
2024-01-30T17:01:57.913Z,4.69
2024-01-30T17:04:24.809Z,5.16
2024-01-30T17:06:53.537Z,5.13
2024-01-30T17:09:20.418Z,5.18
2024-01-30T17:11:48.526Z,5.48
2024-01-30T17:14:15.768Z,5.34
2024-01-30T17:16:42.926Z,5.18
2024-01-30T17:19:09.800Z,5.37
2024-01-30T17:21:38.092Z,4.88
2024-01-30T17:24:05.505Z,5.37
2024-01-30T17:26:32.255Z,5.24
2024-01-30T17:29:00.343Z,5.54
2024-01-30T17:31:27.027Z,5.42
2024-01-30T17:33:53.932Z,5.48
2024-01-30T17:36:20.645Z,5.36
2024-01-30T17:38:48.264Z,5.40
2024-01-30T17:41:15.045Z,5.28
2024-01-30T17:43:41.650Z,5.30
2024-01-30T17:46:09.958Z,5.33
2024-01-30T17:48:36.858Z,5.48
2024-01-30T17:51:04.365Z,5.53
2024-01-30T17:53:31.064Z,5.51
2024-01-30T17:56:01.760Z,5.43
2024-01-30T17:58:28.547Z,5.48
2024-01-30T18:00:57.954Z,5.26
2024-01-30T18:03:26.087Z,4.97
2024-01-30T18:05:53.729Z,5.45
2024-01-30T18:08:20.370Z,5.36
2024-01-30T18:10:47.133Z,5.38
2024-01-30T18:13:14.601Z,5.23
2024-01-30T18:15:41.539Z,5.27
2024-01-30T18:18:08.338Z,5.38
2024-01-30T18:20:36.361Z,5.25
2024-01-30T18:23:02.996Z,5.35
2024-01-30T18:25:29.768Z,5.26
2024-01-30T18:27:56.612Z,5.18
2024-01-30T18:30:23.346Z,5.21
2024-01-30T18:32:50.259Z,5.36
2024-01-30T18:35:17.059Z,5.25
2024-01-30T18:37:45.322Z,5.26
2024-01-30T18:40:13.855Z,5.26
2024-01-30T18:42:40.920Z,4.80
2024-01-30T18:45:08.891Z,5.10
2024-01-30T18:47:35.569Z,5.10
2024-01-30T18:50:02.378Z,4.94
2024-01-30T18:52:29.166Z,4.67
2024-01-30T18:54:57.230Z,5.16
2024-01-30T18:57:23.944Z,5.02
2024-01-30T18:59:50.603Z,4.89
2024-01-30T19:02:17.301Z,5.06
2024-01-30T19:04:44.313Z,5.21
2024-01-30T19:07:11.122Z,4.55
2024-01-30T19:09:38.904Z,4.96
2024-01-30T19:12:07.863Z,4.35
2024-01-30T19:14:36.395Z,5.01
2024-01-30T19:17:03.734Z,5.08
2024-01-30T19:19:30.431Z,5.22
2024-01-30T19:21:57.222Z,2.77
2024-01-30T19:24:23.872Z,2.25
2024-01-30T19:26:53.071Z,2.64
2024-01-30T19:29:21.074Z,3.98
2024-01-30T19:31:48.312Z,4.52
2024-01-30T19:34:15.311Z,4.16
2024-01-30T19:36:42.049Z,2.36
2024-01-30T19:39:14.382Z,3.34
2024-01-30T19:41:42.191Z,4.49
2024-01-30T19:44:09.493Z,3.94
2024-01-30T19:46:38.344Z,4.64
2024-01-30T19:49:05.270Z,4.68
2024-01-30T19:51:31.998Z,4.78
2024-01-30T19:53:58.634Z,4.79
2024-01-30T19:56:25.270Z,4.82
2024-01-30T19:58:52.010Z,4.77
2024-01-30T20:01:18.944Z,4.68
2024-01-30T20:03:47.084Z,4.78
2024-01-30T20:06:13.999Z,3.14
2024-01-30T20:08:40.792Z,4.29
2024-01-30T20:11:13.898Z,2.89
2024-01-30T20:13:41.471Z,4.12
2024-01-30T20:16:08.772Z,4.53
2024-01-30T20:18:35.508Z,4.67
2024-01-30T20:21:03.918Z,4.82
2024-01-30T20:23:31.606Z,4.71
2024-01-30T20:25:59.131Z,4.83
2024-01-30T20:28:26.956Z,4.76
2024-01-30T20:30:53.898Z,4.63
2024-01-30T20:33:20.634Z,4.73
2024-01-30T20:35:47.306Z,4.74
2024-01-30T20:38:15.317Z,4.69
2024-01-30T20:40:43.227Z,4.73
2024-01-30T20:43:10.035Z,4.53
2024-01-30T20:45:36.730Z,4.53
2024-01-30T20:48:03.920Z,4.47
2024-01-30T20:50:30.855Z,4.53
2024-01-30T20:52:57.522Z,4.71
2024-01-30T20:55:25.681Z,3.77
2024-01-30T20:57:52.373Z,4.33
2024-01-30T21:00:19.734Z,4.55
2024-01-30T21:02:46.368Z,4.19
2024-01-30T21:05:13.357Z,4.44
2024-01-30T21:07:40.159Z,4.50
2024-01-30T21:10:09.443Z,4.61
2024-01-30T21:12:37.516Z,4.65
2024-01-30T21:15:04.997Z,4.62
2024-01-30T21:17:31.663Z,3.07
2024-01-30T21:19:59.097Z,4.28
2024-01-30T21:22:26.057Z,2.11
2024-01-30T21:24:52.823Z,2.45
2024-01-30T21:27:19.522Z,3.90
2024-01-30T21:29:47.625Z,3.99
2024-01-30T21:32:14.308Z,3.14
2024-01-30T21:34:41.274Z,4.09
2024-01-30T21:37:08.174Z,3.47
2024-01-30T21:39:34.920Z,2.98
2024-01-30T21:42:01.529Z,4.12
2024-01-30T21:44:30.690Z,2.69
2024-01-30T21:46:59.567Z,4.01
2024-01-30T21:49:26.977Z,3.98
2024-01-30T21:51:54.901Z,1.32
2024-01-30T21:54:21.596Z,3.17
2024-01-30T21:56:48.471Z,3.83
2024-01-30T21:59:15.097Z,4.10
2024-01-30T22:01:41.917Z,4.11
2024-01-30T22:04:09.947Z,4.26
2024-01-30T22:06:39.706Z,1.67
2024-01-30T22:09:06.476Z,1.05
2024-01-30T22:11:33.197Z,1.66
2024-01-30T22:13:59.923Z,3.61
2024-01-30T22:16:26.711Z,1.72
2024-01-30T22:18:53.374Z,2.49
2024-01-30T22:21:21.355Z,2.50
2024-01-30T22:23:48.042Z,3.55
2024-01-30T22:26:16.174Z,3.87
2024-01-30T22:28:42.890Z,3.46
2024-01-30T22:31:09.658Z,3.67
2024-01-30T22:33:36.313Z,3.98
2024-01-30T22:36:03.044Z,4.06
2024-01-30T22:38:31.027Z,4.08
2024-01-30T22:40:58.220Z,4.01
2024-01-30T22:43:25.885Z,4.06
2024-01-30T22:45:52.565Z,4.00
2024-01-30T22:48:19.272Z,4.02
2024-01-30T22:50:45.942Z,4.01
2024-01-30T22:53:12.859Z,4.05
2024-01-30T22:55:40.987Z,4.10
2024-01-30T22:58:07.801Z,3.93
2024-01-30T23:00:34.527Z,3.09
2024-01-30T23:03:01.211Z,3.87
2024-01-30T23:05:28.042Z,4.03
2024-01-30T23:07:54.667Z,4.01
2024-01-30T23:10:21.475Z,3.65
2024-01-30T23:12:49.438Z,3.90
2024-01-30T23:15:16.352Z,3.10
2024-01-30T23:17:43.496Z,1.82
2024-01-30T23:20:11.324Z,1.26
2024-01-30T23:22:38.198Z,1.37
2024-01-30T23:25:05.259Z,1.86
2024-01-30T23:27:31.917Z,3.38
2024-01-30T23:30:00.147Z,3.73
2024-01-30T23:32:34.691Z,3.79
2024-01-30T23:35:07.285Z,3.89
2024-01-30T23:37:34.406Z,3.80
2024-01-30T23:40:01.178Z,2.60
2024-01-30T23:42:27.928Z,3.66
2024-01-30T23:44:54.967Z,3.87
2024-01-30T23:47:22.999Z,3.91
2024-01-30T23:49:49.816Z,3.88
2024-01-30T23:52:16.599Z,3.92
2024-01-30T23:54:43.323Z,3.86
2024-01-30T23:57:10.002Z,3.94
2024-01-30T23:59:36.687Z,4.00
